createdAt,value
2023-04-07T00:01:14.392Z,985.3
2023-04-07T00:03:15.875Z,985.3
2023-04-07T00:07:18.295Z,985.3
2023-04-07T00:09:19.288Z,985.3
2023-04-07T00:13:21.960Z,985.3
2023-04-07T00:17:25.232Z,985.2
2023-04-07T00:19:26.693Z,985.2
2023-04-07T00:22:12.480Z,985.2
2023-04-07T00:24:18.475Z,985.2
2023-04-07T00:28:16.814Z,985.2
2023-04-07T00:30:18.405Z,985.2
2023-04-07T00:32:19.655Z,985.1
2023-04-07T00:34:20.872Z,985.1
2023-04-07T00:38:23.524Z,985.1
2023-04-07T00:40:25.284Z,985
2023-04-07T00:42:27.159Z,985.1
2023-04-07T00:44:28.384Z,985.1
2023-04-07T00:46:30.198Z,985.1
2023-04-07T00:50:33.183Z,985.1
2023-04-07T00:54:36.704Z,985
2023-04-07T00:56:38.146Z,985.1
2023-04-07T01:00:42.025Z,985
2023-04-07T01:04:46.012Z,985
2023-04-07T01:06:47.516Z,984.9
2023-04-07T01:10:58.668Z,984.9
2023-04-07T01:12:52.309Z,984.8
2023-04-07T01:14:53.527Z,984.9
2023-04-07T01:16:55.193Z,984.8
2023-04-07T01:21:07.457Z,984.9
2023-04-07T01:22:59.356Z,984.8
2023-04-07T01:25:00.457Z,984.9
2023-04-07T01:27:02.122Z,984.8
2023-04-07T01:29:03.146Z,984.8
2023-04-07T01:33:06.636Z,984.9
2023-04-07T01:35:07.533Z,984.8
2023-04-07T01:37:09.171Z,984.8
2023-04-07T01:39:10.263Z,984.8
2023-04-07T01:43:12.457Z,984.7
2023-04-07T01:45:13.536Z,984.7
2023-04-07T01:49:16.896Z,984.7
2023-04-07T01:53:19.495Z,984.7
2023-04-07T01:55:21.040Z,984.6
2023-04-07T01:59:31.241Z,984.6
2023-04-07T02:03:25.969Z,984.6
2023-04-07T02:05:27.604Z,984.7
2023-04-07T02:09:30.590Z,984.6
2023-04-07T02:11:32.476Z,984.6
2023-04-07T02:15:35.101Z,984.5
2023-04-07T02:19:38.025Z,984.6
2023-04-07T02:21:39.697Z,984.4
2023-04-07T02:25:41.742Z,984.4
2023-04-07T02:27:43.326Z,984.4
2023-04-07T02:31:46.386Z,984.3
2023-04-07T02:35:49.806Z,984.4
2023-04-07T02:37:50.891Z,984.2
2023-04-07T02:41:54.153Z,984.3
2023-04-07T02:45:57.625Z,984.2
2023-04-07T02:47:59.509Z,984.1
2023-04-07T02:52:02.490Z,984.1
2023-04-07T02:54:03.697Z,984.1
2023-04-07T02:58:06.762Z,984.1
2023-04-07T03:02:10.342Z,984.1
2023-04-07T03:04:11.787Z,984.1
2023-04-07T03:08:14.563Z,984.1
2023-04-07T03:10:16.340Z,984
2023-04-07T03:14:19.015Z,984
2023-04-07T03:18:22.087Z,983.9
2023-04-07T03:20:23.327Z,983.9
2023-04-07T03:24:26.414Z,983.9
2023-04-07T03:28:29.196Z,983.8
2023-04-07T03:30:30.880Z,983.8
2023-04-07T03:34:33.427Z,983.8
2023-04-07T03:36:34.941Z,983.8
2023-04-07T03:40:38.012Z,983.7
2023-04-07T03:44:41.272Z,983.7
2023-04-07T03:46:42.735Z,983.7
2023-04-07T03:50:45.696Z,983.6
2023-04-07T03:52:47.528Z,983.7
2023-04-07T03:56:50.082Z,983.6
2023-04-07T04:00:52.826Z,983.7
2023-04-07T04:02:53.980Z,983.7
2023-04-07T04:06:56.774Z,983.6
2023-04-07T04:10:59.429Z,983.7
2023-04-07T04:13:01.067Z,983.7
2023-04-07T04:17:05.366Z,983.7
2023-04-07T04:19:05.860Z,983.6
2023-04-07T04:21:07.493Z,983.7
2023-04-07T04:23:09.236Z,983.6
2023-04-07T04:27:11.913Z,983.6
2023-04-07T04:29:13.875Z,983.7
2023-04-07T04:31:14.949Z,983.7
2023-04-07T04:33:16.127Z,983.7
2023-04-07T04:35:17.299Z,983.7
2023-04-07T04:39:20.070Z,983.7
2023-04-07T04:41:21.714Z,983.6
2023-04-07T04:43:22.769Z,983.7
2023-04-07T04:45:24.275Z,983.6
2023-04-07T04:49:27.041Z,983.7
2023-04-07T04:55:31.670Z,983.6
2023-04-07T04:59:35.218Z,983.5
2023-04-07T05:01:36.633Z,983.6
2023-04-07T05:03:38.706Z,983.5
2023-04-07T05:05:40.392Z,983.6
2023-04-07T05:09:43.985Z,983.5
2023-04-07T05:11:45.400Z,983.6
2023-04-07T05:13:46.840Z,983.6
2023-04-07T05:15:48.357Z,983.7
2023-04-07T05:17:49.987Z,983.5
2023-04-07T05:21:52.346Z,983.7
2023-04-07T05:23:53.884Z,983.6
2023-04-07T05:25:54.816Z,983.6
2023-04-07T05:27:56.675Z,983.7
2023-04-07T05:31:59.365Z,983.6
2023-04-07T05:34:00.977Z,983.6
2023-04-07T05:38:03.676Z,983.6
2023-04-07T05:42:06.742Z,983.7
2023-04-07T05:44:08.286Z,983.7
2023-04-07T05:48:11.616Z,983.6
2023-04-07T05:52:14.437Z,983.7
2023-04-07T05:54:15.603Z,983.7
2023-04-07T05:58:18.331Z,983.7
2023-04-07T06:00:19.446Z,983.7
2023-04-07T06:04:21.918Z,983.7
2023-04-07T06:08:25.148Z,983.7
2023-04-07T06:10:26.502Z,983.6
2023-04-07T06:14:29.634Z,983.7
2023-04-07T06:16:31.575Z,983.7
2023-04-07T06:20:35.193Z,983.7
2023-04-07T06:24:38.492Z,983.7
2023-04-07T06:26:39.855Z,983.6
2023-04-07T06:30:42.267Z,983.6
2023-04-07T06:34:45.385Z,983.7
2023-04-07T06:36:46.737Z,983.6
2023-04-07T06:40:49.388Z,983.6
2023-04-07T06:42:50.766Z,983.7
2023-04-07T06:46:53.844Z,983.7
2023-04-07T06:50:56.689Z,983.6
2023-04-07T06:52:58.518Z,983.6
2023-04-07T06:57:01.438Z,983.6
2023-04-07T06:59:02.605Z,983.6
2023-04-07T07:03:05.943Z,983.6
2023-04-07T07:07:52.807Z,983.5
2023-04-07T07:11:55.514Z,983.6
2023-04-07T07:13:57.195Z,983.6
2023-04-07T07:18:00.392Z,983.6
2023-04-07T07:20:01.821Z,983.6
2023-04-07T07:24:04.638Z,983.6
2023-04-07T07:28:07.065Z,983.7
2023-04-07T07:30:08.949Z,983.7
2023-04-07T07:34:11.843Z,983.6
2023-04-07T07:36:13.524Z,983.6
2023-04-07T07:40:15.825Z,983.7
2023-04-07T07:44:18.633Z,983.7
2023-04-07T07:46:19.639Z,983.8
2023-04-07T07:50:23.128Z,983.7
2023-04-07T07:54:25.841Z,983.8
2023-04-07T07:56:27.588Z,983.8
2023-04-07T08:00:29.935Z,983.8
2023-04-07T08:02:31.429Z,983.8
2023-04-07T08:04:32.853Z,983.7
2023-04-07T08:06:34.390Z,983.8
2023-04-07T08:10:37.351Z,983.7
2023-04-07T08:12:38.557Z,983.8
2023-04-07T08:16:41.826Z,983.8
2023-04-07T08:18:43.142Z,983.8
2023-04-07T08:22:45.970Z,983.8
2023-04-07T08:26:48.458Z,983.8
2023-04-07T08:28:49.888Z,983.7
2023-04-07T08:32:53.685Z,983.8
2023-04-07T08:34:54.707Z,983.8
2023-04-07T08:38:57.446Z,983.8
2023-04-07T08:43:00.281Z,983.8
2023-04-07T08:45:01.551Z,983.9
2023-04-07T08:49:04.744Z,983.9
2023-04-07T08:53:07.640Z,983.9
2023-04-07T08:55:08.752Z,983.9
2023-04-07T08:59:11.179Z,983.9
2023-04-07T09:01:13.045Z,983.9
2023-04-07T09:05:15.617Z,983.8
2023-04-07T09:09:18.872Z,983.9
2023-04-07T09:11:20.174Z,983.9
2023-04-07T09:15:23.766Z,983.9
2023-04-07T09:17:25.237Z,983.8
2023-04-07T09:21:28.493Z,983.9
2023-04-07T09:25:31.125Z,983.9
2023-04-07T09:27:32.283Z,983.7
2023-04-07T09:31:34.705Z,983.8
2023-04-07T09:35:38.140Z,983.8
2023-04-07T09:37:39.061Z,983.7
2023-04-07T09:41:41.678Z,983.9
2023-04-07T09:43:42.964Z,983.8
2023-04-07T09:45:43.888Z,983.9
2023-04-07T09:47:45.436Z,983.8
2023-04-07T09:51:48.249Z,983.8
2023-04-07T09:53:49.731Z,983.8
2023-04-07T09:55:50.789Z,983.8
2023-04-07T09:57:52.617Z,983.7
2023-04-07T09:59:53.550Z,983.7
2023-04-07T10:03:55.551Z,983.8
2023-04-07T10:05:57.353Z,983.9
2023-04-07T10:07:59.626Z,983.8
2023-04-07T10:10:00.531Z,983.9
2023-04-07T10:14:02.544Z,983.8
2023-04-07T10:16:03.629Z,983.8
2023-04-07T10:20:06.474Z,983.9
2023-04-07T10:24:09.512Z,983.9
2023-04-07T10:26:10.825Z,983.9
2023-04-07T10:30:13.260Z,983.9
2023-04-07T10:34:16.112Z,984
2023-04-07T10:36:17.783Z,984
2023-04-07T10:40:20.139Z,984
2023-04-07T10:42:21.780Z,984
2023-04-07T10:46:23.953Z,984.1
2023-04-07T10:50:26.497Z,984.1
2023-04-07T10:52:27.925Z,984.1
2023-04-07T10:56:30.449Z,984
2023-04-07T10:58:32.004Z,984
2023-04-07T11:02:34.813Z,984.1
2023-04-07T11:06:36.798Z,984.1
2023-04-07T11:08:38.095Z,984.1
2023-04-07T11:12:40.427Z,984.1
2023-04-07T11:16:43.832Z,984.1
2023-04-07T11:18:45.072Z,984.1
2023-04-07T11:22:47.622Z,984.1
2023-04-07T11:24:48.644Z,984.1
2023-04-07T11:28:51.067Z,984.2
2023-04-07T11:30:52.478Z,984.1
2023-04-07T11:34:56.090Z,984.1
2023-04-07T11:38:58.750Z,984.1
2023-04-07T11:41:00.148Z,984.2
2023-04-07T11:45:02.433Z,984.1
2023-04-07T11:49:05.114Z,984.2
2023-04-07T11:51:07.140Z,984.2
2023-04-07T11:55:09.943Z,984.1
2023-04-07T11:57:10.995Z,984.2
2023-04-07T12:01:14.148Z,984.1
2023-04-07T12:05:16.140Z,984.2
2023-04-07T12:07:17.698Z,984.1
2023-04-07T12:11:20.360Z,984.1
2023-04-07T12:13:21.764Z,984
2023-04-07T12:17:24.555Z,984
2023-04-07T12:21:27.290Z,984
2023-04-07T12:23:28.191Z,984.1
2023-04-07T12:27:41.999Z,983.9
2023-04-07T12:33:36.319Z,983.9
2023-04-07T12:37:38.842Z,983.9
2023-04-07T12:39:40.482Z,983.9
2023-04-07T12:41:41.540Z,983.9
2023-04-07T12:43:42.612Z,984
2023-04-07T12:47:44.865Z,984
2023-04-07T12:49:47.012Z,984
2023-04-07T12:53:48.711Z,984
2023-04-07T12:55:50.677Z,983.9
2023-04-07T12:59:53.471Z,984
2023-04-07T13:03:55.764Z,984
2023-04-07T13:05:57.433Z,984
2023-04-07T13:10:00.290Z,983.9
2023-04-07T13:12:01.793Z,983.9
2023-04-07T13:16:04.879Z,983.9
2023-04-07T13:20:08.357Z,983.8
2023-04-07T13:22:09.633Z,983.9
2023-04-07T13:26:12.058Z,983.9
2023-04-07T13:30:15.269Z,983.9
2023-04-07T13:32:16.972Z,983.9
2023-04-07T13:36:21.832Z,983.7
2023-04-07T13:38:20.775Z,983.8
2023-04-07T13:42:23.604Z,983.7
2023-04-07T13:46:28.733Z,983.7
2023-04-07T13:48:27.944Z,983.6
2023-04-07T13:53:13.638Z,983.7
2023-04-07T13:57:16.660Z,983.6
2023-04-07T13:59:18.177Z,983.6
2023-04-07T14:03:21.144Z,983.5
2023-04-07T14:07:24.503Z,983.5
2023-04-07T14:09:25.348Z,983.5
2023-04-07T14:13:27.727Z,983.5
2023-04-07T14:15:29.412Z,983.5
2023-04-07T14:17:30.440Z,983.5
2023-04-07T14:19:31.311Z,983.5
2023-04-07T14:23:37.542Z,983.5
2023-04-07T14:25:35.659Z,983.6
2023-04-07T14:27:36.967Z,983.5
2023-04-07T14:29:38.645Z,983.5
2023-04-07T14:31:40.454Z,983.5
2023-04-07T14:35:42.853Z,983.5
2023-04-07T14:37:43.871Z,983.4
2023-04-07T14:39:51.744Z,983.5
2023-04-07T14:41:46.818Z,983.4
2023-04-07T14:45:50.184Z,983.5
2023-04-07T14:51:54.579Z,983.5
2023-04-07T14:55:57.979Z,983.5
2023-04-07T14:57:59.387Z,983.6
2023-04-07T15:02:01.520Z,983.5
2023-04-07T15:06:03.934Z,983.7
2023-04-07T15:08:04.802Z,983.6
2023-04-07T15:12:07.269Z,983.7
2023-04-07T15:14:08.299Z,983.7
2023-04-07T15:18:10.954Z,983.7
2023-04-07T15:22:13.344Z,983.8
2023-04-07T15:24:16.193Z,983.8
2023-04-07T15:28:17.110Z,983.7
2023-04-07T15:30:18.349Z,983.7
2023-04-07T15:34:21.170Z,983.8
2023-04-07T15:38:24.019Z,983.7
2023-04-07T15:40:25.392Z,983.8
2023-04-07T15:44:28.839Z,983.9
2023-04-07T15:48:31.220Z,983.8
2023-04-07T15:50:32.636Z,983.8
2023-04-07T15:54:36.158Z,983.8
2023-04-07T15:56:37.801Z,983.9
2023-04-07T16:00:41.099Z,983.8
2023-04-07T16:04:43.647Z,983.9
2023-04-07T16:06:45.118Z,983.8
2023-04-07T16:10:47.892Z,983.9
2023-04-07T16:12:48.856Z,984
2023-04-07T16:16:51.890Z,983.9
2023-04-07T16:20:55.030Z,983.9
2023-04-07T16:22:55.945Z,983.9
2023-04-07T16:26:58.003Z,983.9
2023-04-07T16:31:00.528Z,984
2023-04-07T16:33:02.310Z,984
2023-04-07T16:37:05.006Z,984
2023-04-07T16:39:06.003Z,984.1
2023-04-07T16:41:07.232Z,984
2023-04-07T16:43:08.753Z,984
2023-04-07T16:47:11.441Z,984.1
2023-04-07T16:49:13.049Z,984.1
2023-04-07T16:51:14.581Z,984.2
2023-04-07T16:53:15.757Z,984.2
2023-04-07T16:55:17.606Z,984.2
2023-04-07T16:59:19.738Z,984.3
2023-04-07T17:01:21.099Z,984.2
2023-04-07T17:03:22.600Z,984.3
2023-04-07T17:05:23.683Z,984.2
2023-04-07T17:09:25.910Z,984.3
2023-04-07T17:11:27.199Z,984.3
2023-04-07T17:15:29.983Z,984.4
2023-04-07T17:19:32.184Z,984.4
2023-04-07T17:21:33.956Z,984.4
2023-04-07T17:25:36.682Z,984.5
2023-04-07T17:29:39.585Z,984.5
2023-04-07T17:31:41.314Z,984.5
2023-04-07T17:35:43.951Z,984.6
2023-04-07T17:37:44.976Z,984.6
2023-04-07T17:41:47.753Z,984.8
2023-04-07T17:45:49.786Z,984.8
2023-04-07T17:47:51.197Z,984.9
2023-04-07T17:51:53.319Z,984.8
2023-04-07T17:53:55.070Z,985
2023-04-07T17:57:58.206Z,985
2023-04-07T18:02:01.291Z,985.1
2023-04-07T18:04:04.470Z,985.1
2023-04-07T18:08:05.128Z,985.2
2023-04-07T18:12:15.515Z,985.2
2023-04-07T18:14:08.958Z,985.2
2023-04-07T18:18:12.108Z,985.4
2023-04-07T18:20:13.132Z,985.3
2023-04-07T18:22:14.490Z,985.3
2023-04-07T18:24:16.193Z,985.3
2023-04-07T18:28:19.108Z,985.5
2023-04-07T18:30:20.568Z,985.5
2023-04-07T18:34:23.800Z,985.6
2023-04-07T18:36:25.391Z,985.6
2023-04-07T18:40:28.522Z,985.7
2023-04-07T18:44:31.389Z,985.7
2023-04-07T18:46:33.271Z,985.7
2023-04-07T18:50:35.763Z,985.8
2023-04-07T18:54:38.695Z,985.8
2023-04-07T18:56:39.669Z,985.9
2023-04-07T19:00:42.796Z,986
2023-04-07T19:02:44.569Z,985.8
2023-04-07T19:04:45.953Z,985.9
2023-04-07T19:06:47.493Z,985.9
2023-04-07T19:10:51.024Z,986.1
2023-04-07T19:12:51.545Z,986
2023-04-07T19:14:52.870Z,985.9
2023-04-07T19:16:54.790Z,986.1
2023-04-07T19:18:55.853Z,986
2023-04-07T19:22:58.070Z,986
2023-04-07T19:27:01.297Z,986.1
2023-04-07T19:29:03.115Z,986.1
2023-04-07T19:33:05.867Z,986.1
2023-04-07T19:35:07.727Z,986.2
2023-04-07T19:39:10.594Z,986.2
2023-04-07T19:43:13.792Z,986.2
2023-04-07T19:45:15.552Z,986.2
2023-04-07T19:49:18.356Z,986.3
2023-04-07T19:53:21.678Z,986.4
2023-04-07T19:55:22.954Z,986.4
2023-04-07T19:59:26.063Z,986.4
2023-04-07T20:01:27.323Z,986.5
2023-04-07T20:05:30.491Z,986.3
2023-04-07T20:09:33.037Z,986.3
2023-04-07T20:11:33.997Z,986.4
2023-04-07T20:15:36.527Z,986.3
2023-04-07T20:17:38.318Z,986.4
2023-04-07T20:21:41.019Z,986.4
2023-04-07T20:25:44.403Z,986.4
2023-04-07T20:27:46.094Z,986.4
2023-04-07T20:31:49.768Z,986.3
2023-04-07T20:35:52.309Z,986.4
2023-04-07T20:38:37.166Z,986.4
2023-04-07T20:42:40.700Z,986.4
2023-04-07T20:46:42.927Z,986.5
2023-04-07T20:48:44.550Z,986.5
2023-04-07T20:52:47.920Z,986.5
2023-04-07T20:54:49.812Z,986.5
2023-04-07T20:58:52.408Z,986.5
2023-04-07T21:02:55.414Z,986.5
2023-04-07T21:04:56.436Z,986.6
2023-04-07T21:08:59.278Z,986.6
2023-04-07T21:13:02.337Z,986.6
2023-04-07T21:15:04.087Z,986.6
2023-04-07T21:19:07.372Z,986.6
2023-04-07T21:21:09.012Z,986.6
2023-04-07T21:25:11.757Z,986.7
2023-04-07T21:29:14.790Z,986.6
2023-04-07T21:31:16.595Z,986.7
2023-04-07T21:35:19.577Z,986.7
2023-04-07T21:37:21.112Z,986.6
2023-04-07T21:41:24.657Z,986.8
2023-04-07T21:45:27.552Z,986.7
2023-04-07T21:47:28.930Z,986.8
2023-04-07T21:51:31.620Z,986.6
2023-04-07T21:55:35.306Z,986.6
2023-04-07T21:57:36.682Z,986.7
2023-04-07T22:01:39.956Z,986.8
2023-04-07T22:03:41.042Z,986.8
2023-04-07T22:07:43.851Z,986.8
2023-04-07T22:11:47.445Z,986.9
2023-04-07T22:13:49.412Z,986.8
2023-04-07T22:17:53.421Z,986.9
2023-04-07T22:19:54.824Z,986.8
2023-04-07T22:23:57.896Z,986.9
2023-04-07T22:28:01.014Z,986.8
2023-04-07T22:30:02.361Z,986.9
2023-04-07T22:34:05.772Z,987
2023-04-07T22:38:09.186Z,987
2023-04-07T22:40:10.211Z,987
2023-04-07T22:44:13.141Z,987
2023-04-07T22:46:14.487Z,987
2023-04-07T22:48:15.531Z,987
2023-04-07T22:50:17.393Z,987.1
2023-04-07T22:54:20.832Z,987.1
2023-04-07T22:56:21.918Z,987
2023-04-07T23:00:25.211Z,987.1
2023-04-07T23:02:26.490Z,987.1
2023-04-07T23:06:29.174Z,987.1
2023-04-07T23:10:32.340Z,987
2023-04-07T23:12:34.168Z,987.1
2023-04-07T23:16:36.878Z,987.2
2023-04-07T23:22:40.520Z,987.1
2023-04-07T23:26:43.190Z,987.2
2023-04-07T23:28:44.337Z,987.2
2023-04-07T23:32:46.998Z,987.2
2023-04-07T23:36:50.167Z,987.2
2023-04-07T23:38:51.575Z,987.3
2023-04-07T23:42:54.969Z,987.3
2023-04-07T23:44:56.712Z,987.3
2023-04-07T23:48:59.186Z,987.1
2023-04-07T23:53:02.068Z,987.2
2023-04-07T23:55:03.540Z,987.3
2023-04-07T23:59:06.068Z,987.2
